Terminal Aerodrome Forecast
Issued by NWS

Home | Current Version | Previous Version | Text Only | Print | Product List | Glossary On
Versions: 1 2 3 4 5 6 7 8 9 10 11 12 13 14 15 16 17 18
000
FTAK31 PAJN 302153 AAA
TAFAJN
TAF AMD
PAJN 302153Z 3022/3118 12013KT P6SM -SHRA FEW006 BKN035 OVC045
     FM310100 10005KT P6SM SCT050 BKN080=

USA.gov is the U.S. government's official web portal to all federal, state and local government web resources and services.